createdAt,value
2022-09-25T00:02:07.546Z,15.27
2022-09-25T00:04:46.381Z,16.95
2022-09-25T00:07:44.004Z,16.58
2022-09-25T00:10:30.052Z,20.27
2022-09-25T00:13:05.786Z,18.65
2022-09-25T01:42:19.331Z,18.05
2022-09-25T09:26:03.095Z,36.65
2022-09-25T09:38:54.449Z,30.70
2022-09-25T09:42:13.490Z,28.30
2022-09-25T09:48:12.281Z,29.08
2022-09-25T09:51:29.617Z,30.40
2022-09-25T09:57:32.871Z,26.20
2022-09-25T10:00:33.009Z,28.00
2022-09-25T10:03:15.075Z,25.60
2022-09-25T10:06:07.619Z,20.52
2022-09-25T10:08:42.680Z,21.50
2022-09-25T10:11:23.601Z,26.40
2022-09-25T10:14:08.265Z,24.25
2022-09-25T10:16:40.826Z,27.00
2022-09-25T10:19:22.189Z,24.60
2022-09-25T10:22:09.816Z,25.35
2022-09-25T10:24:54.940Z,22.63
2022-09-25T10:27:39.405Z,22.25
2022-09-25T10:30:32.249Z,23.95
2022-09-25T10:33:22.352Z,24.40
2022-09-25T10:36:01.279Z,25.55
2022-09-25T10:38:38.265Z,23.08
2022-09-25T10:45:00.296Z,19.95
2022-09-25T10:47:53.307Z,23.60
2022-09-25T10:53:43.806Z,16.77
2022-09-25T10:56:31.576Z,15.73
2022-09-25T10:59:04.087Z,15.88
2022-09-25T11:04:51.249Z,14.88
2022-09-25T11:07:25.477Z,15.32
2022-09-25T11:09:59.881Z,15.25
2022-09-25T11:12:34.059Z,18.35
2022-09-25T11:15:10.098Z,20.10
2022-09-25T11:17:45.125Z,13.75
2022-09-25T11:20:24.351Z,13.05
2022-09-25T11:23:16.169Z,13.60
2022-09-25T11:25:56.881Z,14.98
2022-09-25T11:28:37.292Z,13.15
2022-09-25T11:31:27.833Z,15.10
2022-09-25T11:34:12.353Z,14.53
2022-09-25T11:36:45.799Z,11.32
2022-09-25T11:39:40.543Z,11.13
2022-09-25T11:42:08.744Z,13.68
2022-09-25T11:44:37.845Z,19.17
2022-09-25T11:47:39.144Z,13.23
2022-09-25T11:50:16.544Z,10.43
2022-09-25T11:53:10.064Z,10.30
2022-09-25T11:56:01.832Z,11.32
2022-09-25T11:58:54.597Z,12.02
2022-09-25T12:01:42.524Z,16.35
2022-09-25T12:04:17.706Z,12.50
2022-09-25T12:06:50.680Z,12.45
2022-09-25T12:09:51.419Z,12.05
2022-09-25T12:12:50.719Z,13.32
2022-09-25T12:15:43.620Z,17.75
2022-09-25T12:18:28.365Z,13.45
2022-09-25T12:21:19.140Z,15.27
2022-09-25T12:23:54.011Z,14.20
2022-09-25T12:26:38.300Z,13.35
2022-09-25T12:29:30.533Z,15.60
2022-09-25T12:31:59.321Z,13.50
2022-09-25T12:34:36.760Z,13.18
2022-09-25T12:37:15.921Z,13.98
2022-09-25T12:39:58.203Z,12.88
2022-09-25T12:42:46.890Z,16.02
2022-09-25T12:45:23.930Z,13.77
2022-09-25T12:48:16.912Z,13.88
2022-09-25T12:51:05.589Z,14.63
2022-09-25T12:53:53.439Z,18.55
2022-09-25T12:56:25.459Z,14.73
2022-09-25T12:59:17.695Z,17.00
2022-09-25T13:01:47.839Z,15.35
2022-09-25T13:04:27.918Z,17.70
2022-09-25T13:07:06.439Z,16.67
2022-09-25T13:09:37.392Z,16.52
2022-09-25T13:12:26.166Z,13.10
2022-09-25T13:14:59.270Z,14.45
2022-09-25T13:17:31.331Z,14.40
2022-09-25T13:20:18.772Z,16.50
2022-09-25T13:22:48.021Z,12.30
2022-09-25T13:25:20.144Z,13.40
2022-09-25T13:27:55.486Z,14.20
2022-09-25T13:30:25.031Z,14.48
2022-09-25T13:32:57.044Z,14.32
2022-09-25T13:35:33.323Z,18.17
2022-09-25T13:38:13.517Z,14.55
2022-09-25T13:40:51.860Z,16.13
2022-09-25T13:43:29.027Z,10.82
2022-09-25T13:46:16.302Z,12.68
2022-09-25T13:48:45.764Z,13.38
2022-09-25T13:51:36.335Z,13.23
2022-09-25T13:54:06.856Z,13.97
2022-09-25T13:56:34.951Z,12.38
2022-09-25T13:59:14.807Z,13.23
2022-09-25T14:01:44.563Z,13.57
2022-09-25T14:04:33.428Z,12.57
2022-09-25T14:07:24.527Z,14.55
2022-09-25T14:09:55.144Z,16.52
2022-09-25T14:12:27.071Z,15.30
2022-09-25T14:15:08.864Z,12.52
2022-09-25T14:17:46.355Z,12.55
2022-09-25T14:20:27.343Z,16.65
2022-09-25T14:23:15.321Z,16.70
2022-09-25T14:25:48.208Z,15.05
2022-09-25T14:28:25.644Z,12.55
2022-09-25T14:31:09.369Z,12.60
2022-09-25T14:33:42.991Z,11.60
2022-09-25T14:36:12.821Z,15.20
2022-09-25T14:38:40.646Z,14.40
2022-09-25T14:41:13.639Z,15.57
2022-09-25T14:43:49.166Z,15.02
2022-09-25T14:46:23.726Z,15.45
2022-09-25T14:49:11.297Z,15.40
2022-09-25T14:51:43.446Z,14.60
2022-09-25T14:54:23.359Z,20.02
2022-09-25T14:57:05.164Z,16.42
2022-09-25T14:59:43.576Z,15.48
2022-09-25T15:02:19.331Z,17.95
2022-09-25T15:05:00.400Z,17.73
2022-09-25T15:07:33.634Z,14.45
2022-09-25T15:10:02.743Z,19.05
2022-09-25T15:12:47.074Z,18.48
2022-09-25T15:15:17.783Z,18.33
2022-09-25T15:17:50.894Z,21.10
2022-09-25T15:20:36.495Z,20.05
2022-09-25T15:23:16.732Z,18.30
2022-09-25T15:26:12.612Z,16.42
2022-09-25T15:28:42.627Z,17.33
2022-09-25T15:31:17.879Z,19.40
2022-09-25T15:33:47.419Z,16.70
2022-09-25T15:36:24.679Z,14.77
2022-09-25T15:39:11.100Z,22.65
2022-09-25T15:41:46.674Z,17.67
2022-09-25T15:44:16.776Z,16.50
2022-09-25T15:46:54.707Z,20.85
2022-09-25T15:49:41.932Z,22.42
2022-09-25T15:52:20.920Z,17.90
2022-09-25T15:54:50.485Z,24.55
2022-09-25T15:57:26.140Z,21.73
2022-09-25T16:00:24.640Z,15.20
2022-09-25T16:03:28.427Z,14.52
2022-09-25T16:05:58.133Z,20.33
2022-09-25T16:08:28.979Z,23.77
2022-09-25T16:11:25.544Z,33.03
2022-09-25T16:14:12.741Z,71.45
2022-09-25T16:16:48.257Z,30.63
2022-09-25T16:19:47.773Z,21.73
2022-09-25T17:06:31.262Z,24.65
2022-09-25T17:09:03.339Z,28.13
2022-09-25T17:11:39.259Z,24.27
2022-09-25T18:38:47.505Z,50.95
2022-09-25T19:02:55.627Z,49.47
2022-09-25T19:05:25.080Z,52.88
2022-09-25T19:08:21.269Z,52.15
2022-09-25T19:10:49.699Z,61.78
2022-09-25T19:13:40.921Z,70.47
2022-09-25T19:16:18.767Z,72.28
2022-09-25T19:19:04.415Z,70.38
2022-09-25T19:21:34.329Z,68.05
2022-09-25T19:24:04.624Z,65.70
2022-09-25T19:26:51.308Z,68.10
2022-09-25T19:29:47.208Z,59.63
2022-09-25T19:32:18.100Z,64.53
2022-09-25T19:34:58.841Z,62.55
2022-09-25T19:37:43.584Z,61.47
2022-09-25T19:40:31.512Z,64.85
2022-09-25T19:43:20.003Z,65.00
2022-09-25T19:46:01.054Z,70.60
2022-09-25T19:54:31.101Z,68.40
2022-09-25T19:56:59.927Z,64.43
2022-09-25T19:59:31.359Z,57.42
2022-09-25T20:05:04.128Z,53.22
2022-09-25T20:08:00.026Z,45.22
2022-09-25T20:22:24.740Z,32.58
2022-09-25T20:25:05.954Z,29.20
2022-09-25T20:30:55.939Z,21.13
2022-09-25T20:33:35.519Z,21.90
2022-09-25T20:36:04.849Z,21.58
2022-09-25T20:38:35.287Z,23.85
2022-09-25T20:41:04.249Z,20.10
2022-09-25T20:43:36.436Z,20.02
2022-09-25T20:46:06.837Z,16.92
2022-09-25T20:48:41.033Z,21.10
2022-09-25T20:51:16.716Z,21.00
2022-09-25T20:53:55.118Z,18.33
2022-09-25T20:56:35.003Z,16.50
2022-09-25T20:59:13.506Z,17.77
2022-09-25T21:01:42.895Z,15.55
2022-09-25T21:04:19.391Z,15.70
2022-09-25T21:06:47.234Z,16.13
2022-09-25T21:09:31.434Z,13.45
2022-09-25T21:12:06.992Z,16.38
2022-09-25T21:14:38.507Z,22.20
2022-09-25T21:17:22.075Z,19.55
2022-09-25T21:20:13.895Z,13.35
2022-09-25T21:25:09.460Z,13.93
2022-09-25T21:27:40.528Z,14.07
2022-09-25T21:30:27.008Z,16.17
2022-09-25T21:32:56.782Z,12.75
2022-09-25T21:35:26.047Z,15.43
2022-09-25T21:41:14.629Z,19.67
2022-09-25T21:50:12.473Z,24.60
2022-09-25T21:59:12.141Z,16.88
2022-09-25T22:04:53.144Z,16.38
2022-09-25T22:07:25.240Z,17.75
2022-09-25T22:09:54.320Z,17.05
2022-09-25T22:12:24.495Z,14.88
2022-09-25T22:15:00.120Z,15.38
2022-09-25T22:17:34.959Z,13.32
2022-09-25T22:26:26.208Z,12.60
2022-09-25T22:28:57.828Z,11.68
2022-09-25T22:32:03.913Z,12.45
2022-09-25T22:47:41.904Z,11.35
2022-09-25T22:53:29.810Z,14.73
2022-09-25T22:56:12.346Z,14.25
2022-09-25T22:59:08.587Z,13.90
2022-09-25T23:01:50.013Z,17.65
2022-09-25T23:04:26.001Z,14.18
2022-09-25T23:07:11.284Z,12.68
2022-09-25T23:09:54.452Z,10.77
2022-09-25T23:12:23.559Z,12.45
2022-09-25T23:15:05.083Z,11.07
2022-09-25T23:17:53.231Z,10.90
2022-09-25T23:20:23.316Z,14.60
2022-09-25T23:23:04.513Z,12.63
2022-09-25T23:25:35.435Z,15.35
2022-09-25T23:28:23.646Z,12.68
2022-09-25T23:30:53.231Z,12.55
2022-09-25T23:33:22.236Z,15.60
2022-09-25T23:36:30.943Z,12.77
2022-09-25T23:39:09.866Z,11.52
2022-09-25T23:41:47.472Z,12.45
2022-09-25T23:44:22.434Z,10.52
2022-09-25T23:46:50.353Z,9.77
2022-09-25T23:49:19.225Z,10.88
2022-09-25T23:51:49.489Z,8.88
2022-09-25T23:54:21.793Z,8.00
2022-09-25T23:56:58.135Z,8.30
2022-09-25T23:59:27.627Z,8.45
